createdAt,value
2019-04-06T00:00:25.740Z,94297
2019-04-06T00:01:35.245Z,94295
2019-04-06T00:02:44.740Z,94286
2019-04-06T00:03:54.237Z,94292
2019-04-06T00:05:03.732Z,94294
2019-04-06T00:06:13.296Z,94294
2019-04-06T00:07:22.802Z,94298
2019-04-06T00:08:32.299Z,94295
2019-04-06T00:09:41.808Z,94298
2019-04-06T00:10:51.326Z,94293
2019-04-06T00:12:00.817Z,94293
2019-04-06T00:13:10.318Z,94290
2019-04-06T00:14:19.812Z,94295
2019-04-06T00:15:29.326Z,94291
2019-04-06T00:18:39.337Z,94288
2019-04-06T00:19:48.854Z,94288
2019-04-06T00:20:58.375Z,94281
2019-04-06T00:22:07.879Z,94282
2019-04-06T00:23:17.380Z,94283
2019-04-06T00:24:26.892Z,94283
2019-04-06T00:25:44.072Z,94284
2019-04-06T00:26:46.879Z,94279
2019-04-06T00:27:56.389Z,94280
2019-04-06T00:29:05.894Z,94282
2019-04-06T00:30:15.394Z,94283
2019-04-06T00:31:24.911Z,94286
2019-04-06T00:32:34.456Z,94279
2019-04-06T00:33:43.974Z,94282
2019-04-06T00:34:53.489Z,94289
2019-04-06T00:36:02.940Z,94287
2019-04-06T00:37:12.454Z,94286
2019-04-06T00:38:21.963Z,94282
2019-04-06T00:39:31.465Z,94286
2019-04-06T00:40:40.984Z,94285
2019-04-06T00:41:50.485Z,94287
2019-04-06T00:42:59.989Z,94292
2019-04-06T00:44:09.508Z,94288
2019-04-06T00:45:20.123Z,94288
2019-04-06T00:46:29.534Z,94285
2019-04-06T00:47:39.033Z,94284
2019-04-06T00:48:48.539Z,94285
2019-04-06T00:49:58.040Z,94288
2019-04-06T00:51:07.590Z,94289
2019-04-06T00:52:17.070Z,94285
2019-04-06T00:53:26.578Z,94287
2019-04-06T00:54:36.078Z,94291
2019-04-06T00:55:55.020Z,94291
2019-04-06T00:56:56.097Z,94294
2019-04-06T00:58:05.595Z,94286
2019-04-06T00:59:15.100Z,94290
2019-04-06T01:00:24.605Z,94292
2019-04-06T01:01:34.124Z,94289
2019-04-06T01:02:43.637Z,94295
2019-04-06T01:03:53.145Z,94298
2019-04-06T01:05:02.656Z,94296
2019-04-06T01:06:12.179Z,94300
2019-04-06T01:07:23.133Z,94295
2019-04-06T01:08:31.172Z,94299
2019-04-06T01:09:40.675Z,94294
2019-04-06T01:10:50.177Z,94295
2019-04-06T01:11:59.704Z,94294
2019-04-06T01:13:09.215Z,94295
2019-04-06T01:14:18.726Z,94290
2019-04-06T01:15:28.223Z,94292
2019-04-06T01:16:37.736Z,94295
2019-04-06T01:17:47.241Z,94290
2019-04-06T01:18:57.744Z,94292
2019-04-06T01:20:07.229Z,94291
2019-04-06T01:21:16.742Z,94289
2019-04-06T01:22:26.251Z,94283
2019-04-06T01:23:35.755Z,94283
2019-04-06T01:24:45.280Z,94291
2019-04-06T01:25:54.764Z,94286
2019-04-06T01:27:05.267Z,94287
2019-04-06T01:28:14.765Z,94279
2019-04-06T01:29:24.311Z,94283
2019-04-06T01:30:33.784Z,94274
2019-04-06T01:31:43.288Z,94280
2019-04-06T01:32:52.786Z,94275
2019-04-06T01:34:02.301Z,94271
2019-04-06T01:35:11.800Z,94275
2019-04-06T01:36:21.313Z,94277
2019-04-06T01:37:30.814Z,94280
2019-04-06T01:38:40.316Z,94278
2019-04-06T01:39:49.838Z,94276
2019-04-06T01:40:59.346Z,94273
2019-04-06T01:42:08.859Z,94270
2019-04-06T01:43:18.368Z,94271
2019-04-06T01:44:27.867Z,94269
2019-04-06T01:45:37.373Z,94276
2019-04-06T01:46:47.041Z,94277
2019-04-06T01:47:56.388Z,94274
2019-04-06T01:49:05.887Z,94271
2019-04-06T01:50:15.391Z,94276
2019-04-06T01:51:24.944Z,94274
2019-04-06T01:52:34.461Z,94273
2019-04-06T01:53:43.951Z,94270
2019-04-06T01:54:53.498Z,94271
2019-04-06T01:56:03.036Z,94265
2019-04-06T01:57:13.468Z,94269
2019-04-06T01:58:22.967Z,94271
2019-04-06T01:59:32.474Z,94271
2019-04-06T02:00:41.976Z,94269
2019-04-06T02:01:51.515Z,94268
2019-04-06T02:03:00.995Z,94272
2019-04-06T02:04:10.511Z,94271
2019-04-06T02:05:20.146Z,94268
2019-04-06T02:06:29.583Z,94269
2019-04-06T02:07:39.086Z,94270
2019-04-06T02:08:48.590Z,94270
2019-04-06T02:09:58.091Z,94265
2019-04-06T02:11:07.592Z,94265
2019-04-06T02:12:17.114Z,94260
2019-04-06T02:13:26.622Z,94264
2019-04-06T02:14:36.119Z,94267
2019-04-06T02:15:45.616Z,94266
2019-04-06T02:16:55.171Z,94267
2019-04-06T02:18:05.935Z,94268
2019-04-06T02:19:14.154Z,94271
2019-04-06T02:20:23.652Z,94266
2019-04-06T02:21:33.155Z,94262
2019-04-06T02:22:42.694Z,94263
2019-04-06T02:23:52.201Z,94267
2019-04-06T02:25:00.700Z,94268
2019-04-06T02:26:10.210Z,94264
2019-04-06T02:27:19.724Z,94270
2019-04-06T02:28:29.225Z,94268
2019-04-06T02:29:38.734Z,94267
2019-04-06T02:30:48.251Z,94268
2019-04-06T02:31:57.764Z,94270
2019-04-06T02:33:07.261Z,94274
2019-04-06T02:34:17.756Z,94272
2019-04-06T02:35:27.258Z,94268
2019-04-06T02:36:36.756Z,94267
2019-04-06T02:37:46.279Z,94270
2019-04-06T02:38:55.776Z,94270
2019-04-06T02:40:07.673Z,94269
2019-04-06T02:41:14.778Z,94272
2019-04-06T02:42:24.307Z,94269
2019-04-06T02:43:34.058Z,94271
2019-04-06T02:44:43.307Z,94271
2019-04-06T02:45:52.809Z,94269
2019-04-06T02:47:02.315Z,94267
2019-04-06T02:48:11.819Z,94267
2019-04-06T02:49:21.332Z,94271
2019-04-06T02:50:30.958Z,94266
2019-04-06T02:51:40.338Z,94265
2019-04-06T02:52:49.979Z,94265
2019-04-06T02:53:59.370Z,94260
2019-04-06T02:55:08.886Z,94264
2019-04-06T02:56:18.407Z,94258
2019-04-06T02:57:27.941Z,94258
2019-04-06T02:58:37.403Z,94255
2019-04-06T02:59:46.905Z,94253
2019-04-06T03:00:56.454Z,94267
2019-04-06T03:02:05.897Z,94262
2019-04-06T03:03:15.428Z,94265
2019-04-06T03:04:24.931Z,94261
2019-04-06T03:05:34.428Z,94259
2019-04-06T03:06:43.926Z,94261
2019-04-06T03:07:53.459Z,94258
2019-04-06T03:09:02.966Z,94259
2019-04-06T03:10:13.451Z,94259
2019-04-06T03:11:23.167Z,94255
2019-04-06T03:12:32.474Z,94260
2019-04-06T03:13:41.984Z,94257
2019-04-06T03:14:51.568Z,94256
2019-04-06T03:16:01.002Z,94256
2019-04-06T03:17:10.513Z,94256
2019-04-06T03:18:20.007Z,94259
2019-04-06T03:19:29.510Z,94253
2019-04-06T03:20:39.014Z,94251
2019-04-06T03:21:48.522Z,94247
2019-04-06T03:22:58.035Z,94249
2019-04-06T03:24:07.551Z,94252
2019-04-06T03:25:17.049Z,94249
2019-04-06T03:26:26.648Z,94250
2019-04-06T03:27:36.063Z,94245
2019-04-06T03:28:45.786Z,94250
2019-04-06T03:29:58.063Z,94252
2019-04-06T03:31:04.581Z,94247
2019-04-06T03:32:14.086Z,94245
2019-04-06T03:33:23.771Z,94244
2019-04-06T03:34:33.515Z,94247
2019-04-06T03:35:47.488Z,94242
2019-04-06T03:36:53.048Z,94245
2019-04-06T03:38:02.562Z,94241
2019-04-06T03:39:12.064Z,94247
2019-04-06T03:40:21.571Z,94249
2019-04-06T03:41:31.103Z,94251
2019-04-06T03:42:40.611Z,94245
2019-04-06T03:43:50.117Z,94245
2019-04-06T03:44:59.621Z,94246
2019-04-06T03:46:09.125Z,94245
2019-04-06T03:47:18.621Z,94243
2019-04-06T03:48:28.135Z,94245
2019-04-06T03:49:37.644Z,94243
2019-04-06T03:50:47.159Z,94243
2019-04-06T03:51:56.657Z,94244
2019-04-06T03:53:06.183Z,94247
2019-04-06T03:54:15.683Z,94249
2019-04-06T03:55:25.183Z,94250
2019-04-06T03:56:34.693Z,94257
2019-04-06T03:57:44.209Z,94251
2019-04-06T03:58:53.725Z,94250
2019-04-06T04:00:03.202Z,94252
2019-04-06T04:01:12.693Z,94253
2019-04-06T04:02:22.211Z,94255
2019-04-06T04:03:31.729Z,94251
2019-04-06T04:04:41.228Z,94249
2019-04-06T04:05:50.731Z,94244
2019-04-06T04:07:00.244Z,94241
2019-04-06T04:08:09.783Z,94239
2019-04-06T04:09:19.329Z,94242
2019-04-06T04:10:28.821Z,94238
2019-04-06T04:11:38.342Z,94239
2019-04-06T04:12:47.882Z,94245
2019-04-06T04:13:57.386Z,94240
2019-04-06T04:15:07.075Z,94241
2019-04-06T04:16:16.422Z,94248
2019-04-06T04:17:25.937Z,94250
2019-04-06T04:18:35.598Z,94248
2019-04-06T04:19:45.019Z,94250
2019-04-06T04:20:54.550Z,94251
2019-04-06T04:22:04.082Z,94251
2019-04-06T04:23:13.649Z,94253
2019-04-06T04:24:23.155Z,94251
2019-04-06T04:25:32.674Z,94252
2019-04-06T04:26:42.181Z,94256
2019-04-06T04:27:51.689Z,94256
2019-04-06T04:29:01.442Z,94255
2019-04-06T04:30:10.943Z,94258
2019-04-06T04:31:21.265Z,94258
2019-04-06T04:32:30.780Z,94259
2019-04-06T04:33:40.317Z,94256
2019-04-06T04:34:49.828Z,94260
2019-04-06T04:35:59.340Z,94264
2019-04-06T04:37:08.845Z,94264
2019-04-06T04:38:18.363Z,94267
2019-04-06T04:39:27.999Z,94266
2019-04-06T04:40:37.378Z,94268
2019-04-06T04:41:46.950Z,94270
2019-04-06T04:42:56.422Z,94270
2019-04-06T04:44:05.951Z,94270
2019-04-06T04:45:15.647Z,94269
2019-04-06T04:46:25.182Z,94270
2019-04-06T04:47:34.519Z,94274
2019-04-06T04:48:44.078Z,94274
2019-04-06T04:49:53.556Z,94275
2019-04-06T04:51:03.247Z,94278
2019-04-06T04:52:12.597Z,94278
2019-04-06T04:53:22.132Z,94282
2019-04-06T04:54:31.673Z,94278
2019-04-06T04:55:41.172Z,94281
2019-04-06T04:56:50.734Z,94279
2019-04-06T04:58:00.176Z,94281
2019-04-06T04:59:09.759Z,94281
2019-04-06T05:00:19.194Z,94277
2019-04-06T05:01:28.700Z,94280
2019-04-06T05:02:38.207Z,94282
2019-04-06T05:03:47.726Z,94280
2019-04-06T05:04:57.345Z,94280
2019-04-06T05:06:06.730Z,94278
2019-04-06T05:07:16.260Z,94283
2019-04-06T05:08:25.745Z,94283
2019-04-06T05:09:35.246Z,94281
2019-04-06T05:10:44.763Z,94282
2019-04-06T05:11:54.258Z,94282
2019-04-06T05:13:03.758Z,94282
2019-04-06T05:14:13.274Z,94279
2019-04-06T05:15:22.790Z,94282
2019-04-06T05:16:32.294Z,94283
2019-04-06T05:17:41.793Z,94283
2019-04-06T05:18:51.316Z,94285
2019-04-06T05:20:00.820Z,94284
2019-04-06T05:21:10.341Z,94284
2019-04-06T05:22:19.900Z,94287
2019-04-06T05:23:29.417Z,94288
2019-04-06T05:24:38.921Z,94292
2019-04-06T05:25:48.556Z,94289
2019-04-06T05:26:57.950Z,94287
2019-04-06T05:28:07.496Z,94292
2019-04-06T05:29:16.946Z,94294
2019-04-06T05:30:26.554Z,94289
2019-04-06T05:31:36.050Z,94291
2019-04-06T05:32:45.459Z,94291
2019-04-06T05:33:54.999Z,94288
2019-04-06T05:35:04.475Z,94289
2019-04-06T05:36:14.098Z,94294
2019-04-06T05:37:23.478Z,94294
2019-04-06T05:38:32.979Z,94298
2019-04-06T05:39:42.515Z,94297
2019-04-06T05:40:52.062Z,94304
2019-04-06T05:42:01.518Z,94303
2019-04-06T05:43:11.018Z,94310
2019-04-06T05:44:20.533Z,94313
2019-04-06T05:45:30.059Z,94311
2019-04-06T05:46:39.564Z,94314
2019-04-06T05:47:49.068Z,94313
2019-04-06T05:48:58.629Z,94311
2019-04-06T05:50:08.157Z,94311
2019-04-06T05:51:17.843Z,94310
2019-04-06T05:52:27.195Z,94313
2019-04-06T05:53:36.697Z,94315
2019-04-06T05:54:46.216Z,94314
2019-04-06T05:55:55.911Z,94320
2019-04-06T05:57:05.221Z,94321
2019-04-06T05:58:14.714Z,94318
2019-04-06T05:59:24.493Z,94320
2019-04-06T06:00:34.068Z,94318
2019-04-06T06:01:44.494Z,94318
2019-04-06T06:02:54.024Z,94320
2019-04-06T06:04:03.526Z,94323
2019-04-06T06:05:14.001Z,94325
2019-04-06T06:06:23.588Z,94322
2019-04-06T06:07:33.074Z,94322
2019-04-06T06:08:42.584Z,94315
2019-04-06T06:09:52.098Z,94312
2019-04-06T06:11:01.791Z,94321
2019-04-06T06:12:11.101Z,94317
2019-04-06T06:13:20.599Z,94319
2019-04-06T06:14:30.114Z,94318
2019-04-06T06:15:39.747Z,94319
2019-04-06T06:16:49.145Z,94317
2019-04-06T06:17:58.667Z,94324
2019-04-06T06:19:08.328Z,94322
2019-04-06T06:20:17.709Z,94323
2019-04-06T06:21:27.223Z,94321
2019-04-06T06:22:36.726Z,94320
2019-04-06T06:23:46.368Z,94316
2019-04-06T06:24:55.738Z,94319
2019-04-06T06:26:05.247Z,94315
2019-04-06T06:27:14.739Z,94313
2019-04-06T06:28:25.245Z,94316
2019-04-06T06:29:34.777Z,94316
2019-04-06T06:30:44.268Z,94315
2019-04-06T06:31:53.769Z,94315
2019-04-06T06:33:03.468Z,94316
2019-04-06T06:34:12.857Z,94319
2019-04-06T06:35:22.319Z,94317
2019-04-06T06:36:31.818Z,94322
2019-04-06T06:37:41.323Z,94324
2019-04-06T06:38:50.866Z,94322
2019-04-06T06:40:00.346Z,94323
2019-04-06T06:41:09.943Z,94329
2019-04-06T06:42:19.493Z,94321
2019-04-06T06:43:28.837Z,94324
2019-04-06T06:44:38.362Z,94327
2019-04-06T06:45:47.868Z,94330
2019-04-06T06:46:57.365Z,94324
2019-04-06T06:48:06.870Z,94325
2019-04-06T06:49:16.506Z,94328
2019-04-06T06:50:25.890Z,94327
2019-04-06T06:51:36.387Z,94326
2019-04-06T06:52:45.893Z,94323
2019-04-06T06:53:55.459Z,94322
2019-04-06T06:55:04.987Z,94323
2019-04-06T06:56:14.495Z,94321
2019-04-06T06:57:24.014Z,94326
2019-04-06T06:58:33.505Z,94324
2019-04-06T06:59:43.204Z,94325
2019-04-06T07:00:52.536Z,94328
2019-04-06T07:02:02.045Z,94330
2019-04-06T07:03:11.552Z,94328
2019-04-06T07:04:21.069Z,94323
2019-04-06T07:05:30.566Z,94328
2019-04-06T07:06:40.091Z,94325
2019-04-06T07:07:49.794Z,94324
2019-04-06T07:08:59.144Z,94330
2019-04-06T07:10:08.671Z,94327
2019-04-06T07:11:18.143Z,94328
2019-04-06T07:12:27.829Z,94320
2019-04-06T07:13:37.157Z,94325
2019-04-06T07:14:46.670Z,94325
2019-04-06T07:15:56.176Z,94329
2019-04-06T07:17:05.708Z,94327
2019-04-06T07:18:15.406Z,94326
2019-04-06T07:19:24.721Z,94330
2019-04-06T07:20:34.214Z,94329
2019-04-06T07:21:43.718Z,94328
2019-04-06T07:22:53.212Z,94323
2019-04-06T07:24:02.798Z,94320
2019-04-06T07:25:12.229Z,94324
2019-04-06T07:26:21.727Z,94321
2019-04-06T07:27:31.415Z,94324
2019-04-06T07:28:40.732Z,94323
2019-04-06T07:29:50.272Z,94327
2019-04-06T07:30:59.827Z,94332
2019-04-06T07:32:09.348Z,94328
2019-04-06T07:33:18.855Z,94326
2019-04-06T07:34:28.344Z,94331
2019-04-06T07:35:37.897Z,94326
2019-04-06T07:36:47.377Z,94324
2019-04-06T07:37:56.887Z,94322
2019-04-06T07:39:06.392Z,94326
2019-04-06T07:40:15.908Z,94327
2019-04-06T07:41:25.407Z,94325
2019-04-06T07:42:34.916Z,94328
2019-04-06T07:43:44.416Z,94325
2019-04-06T07:44:54.307Z,94324
2019-04-06T07:46:03.585Z,94326
2019-04-06T07:47:13.094Z,94323
2019-04-06T07:48:22.617Z,94323
2019-04-06T07:49:32.133Z,94325
2019-04-06T07:50:41.685Z,94329
2019-04-06T07:51:51.274Z,94329
2019-04-06T07:53:00.785Z,94323
2019-04-06T07:54:10.272Z,94320
2019-04-06T07:55:19.894Z,94323
2019-04-06T07:56:29.523Z,94320
2019-04-06T07:57:39.022Z,94323
2019-04-06T07:58:49.995Z,94317
2019-04-06T07:59:58.116Z,94318
2019-04-06T08:01:07.638Z,94319
2019-04-06T08:02:17.270Z,94323
2019-04-06T08:03:26.676Z,94320
2019-04-06T08:04:36.188Z,94319
2019-04-06T08:05:45.846Z,94321
2019-04-06T08:06:55.435Z,94323
2019-04-06T08:08:05.027Z,94317
2019-04-06T08:09:14.543Z,94318
2019-04-06T08:10:24.047Z,94318
2019-04-06T08:11:33.617Z,94318
2019-04-06T08:12:43.182Z,94319
2019-04-06T08:13:52.682Z,94318
2019-04-06T08:15:02.216Z,94324
2019-04-06T08:16:11.746Z,94311
2019-04-06T08:17:21.246Z,94308
2019-04-06T08:18:30.763Z,94313
2019-04-06T08:19:40.275Z,94315
2019-04-06T08:20:49.797Z,94318
2019-04-06T08:21:59.309Z,94317
2019-04-06T08:23:08.815Z,94317
2019-04-06T08:24:18.370Z,94315
2019-04-06T08:25:27.854Z,94319
2019-04-06T08:26:37.365Z,94319
2019-04-06T08:27:47.869Z,94325
2019-04-06T08:29:00.897Z,94324
2019-04-06T08:30:06.882Z,94324
2019-04-06T08:31:16.404Z,94319
2019-04-06T08:32:25.910Z,94318
2019-04-06T08:33:35.438Z,94320
2019-04-06T08:34:44.914Z,94313
2019-04-06T08:35:54.441Z,94315
2019-04-06T08:37:03.964Z,94314
2019-04-06T08:38:13.512Z,94314
2019-04-06T08:39:25.388Z,94318
2019-04-06T08:40:32.497Z,94313
2019-04-06T08:41:42.110Z,94313
2019-04-06T08:42:51.508Z,94311
2019-04-06T08:44:01.136Z,94313
2019-04-06T08:45:10.554Z,94314
2019-04-06T08:46:20.059Z,94315
2019-04-06T08:47:29.557Z,94315
2019-04-06T08:48:39.062Z,94314
2019-04-06T08:49:48.573Z,94311
2019-04-06T08:50:58.089Z,94314
2019-04-06T08:52:07.589Z,94309
2019-04-06T08:53:17.095Z,94310
2019-04-06T08:54:26.615Z,94312
2019-04-06T08:55:36.137Z,94305
2019-04-06T08:56:45.656Z,94310
2019-04-06T08:57:55.163Z,94304
2019-04-06T08:59:11.158Z,94305
2019-04-06T09:00:15.197Z,94303
2019-04-06T09:01:24.733Z,94299
2019-04-06T09:02:34.252Z,94302
2019-04-06T09:03:43.790Z,94303
2019-04-06T09:04:53.309Z,94302
2019-04-06T09:06:02.841Z,94306
2019-04-06T09:07:12.350Z,94301
2019-04-06T09:08:21.867Z,94301
2019-04-06T09:09:31.386Z,94301
2019-04-06T09:10:40.911Z,94293
2019-04-06T09:11:50.425Z,94289
2019-04-06T09:12:59.941Z,94296
2019-04-06T09:14:09.456Z,94295
2019-04-06T09:15:18.981Z,94295
2019-04-06T09:16:28.505Z,94289
2019-04-06T09:17:38.084Z,94292
2019-04-06T09:18:48.848Z,94286
2019-04-06T09:19:57.027Z,94287
2019-04-06T09:21:06.553Z,94289
2019-04-06T09:22:16.069Z,94284
2019-04-06T09:23:25.612Z,94284
2019-04-06T09:24:35.132Z,94289
2019-04-06T09:25:44.760Z,94289
2019-04-06T09:26:54.167Z,94288
2019-04-06T09:28:03.665Z,94286
2019-04-06T09:29:22.335Z,94287
2019-04-06T09:30:23.653Z,94287
2019-04-06T09:31:33.191Z,94286
2019-04-06T09:32:42.692Z,94279
2019-04-06T09:33:52.190Z,94283
2019-04-06T09:35:02.735Z,94279
2019-04-06T09:36:12.227Z,94274
2019-04-06T09:37:21.727Z,94276
2019-04-06T09:38:31.237Z,94274
2019-04-06T09:39:40.751Z,94270
2019-04-06T09:40:50.341Z,94271
2019-04-06T09:41:59.793Z,94268
2019-04-06T09:43:09.302Z,94262
2019-04-06T09:44:18.823Z,94256
2019-04-06T09:45:28.476Z,94259
2019-04-06T09:46:37.861Z,94255
2019-04-06T09:47:47.377Z,94255
2019-04-06T09:48:56.887Z,94246
2019-04-06T09:50:06.398Z,94256
2019-04-06T09:51:16.095Z,94252
2019-04-06T09:52:25.695Z,94257
2019-04-06T09:53:34.923Z,94252
2019-04-06T09:54:44.429Z,94257
2019-04-06T09:55:53.937Z,94254
2019-04-06T09:57:03.791Z,94251
2019-04-06T09:58:13.243Z,94249
2019-04-06T09:59:33.942Z,94246
2019-04-06T10:00:32.937Z,94245
2019-04-06T10:01:42.622Z,94250
2019-04-06T10:02:51.979Z,94243
2019-04-06T10:04:01.477Z,94246
2019-04-06T10:05:10.980Z,94244
2019-04-06T10:06:20.510Z,94246
2019-04-06T10:07:30.013Z,94240
2019-04-06T10:08:39.521Z,94245
2019-04-06T10:09:49.328Z,94243
2019-04-06T10:10:58.572Z,94238
2019-04-06T10:12:08.081Z,94230
2019-04-06T10:13:17.634Z,94233
2019-04-06T10:14:27.317Z,94241
2019-04-06T10:15:36.616Z,94240
2019-04-06T10:16:46.131Z,94241
2019-04-06T10:17:56.202Z,94235
2019-04-06T10:19:05.505Z,94240
2019-04-06T10:20:14.728Z,94234
2019-04-06T10:21:24.242Z,94230
2019-04-06T10:22:33.845Z,94235
2019-04-06T10:23:43.263Z,94232
2019-04-06T10:24:52.777Z,94231
2019-04-06T10:26:02.296Z,94234
2019-04-06T10:27:12.935Z,94241
2019-04-06T10:28:22.313Z,94234
2019-04-06T10:29:31.856Z,94231
2019-04-06T10:30:42.323Z,94233
2019-04-06T10:31:51.829Z,94235
2019-04-06T10:33:01.327Z,94236
2019-04-06T10:34:10.828Z,94233
2019-04-06T10:35:20.393Z,94224
2019-04-06T10:36:31.353Z,94229
2019-04-06T10:37:39.544Z,94230
2019-04-06T10:38:48.899Z,94232
2019-04-06T10:39:58.420Z,94224
2019-04-06T10:41:07.933Z,94224
2019-04-06T10:42:17.444Z,94223
2019-04-06T10:43:27.303Z,94227
2019-04-06T10:44:36.517Z,94225
2019-04-06T10:45:45.965Z,94225
2019-04-06T10:46:55.465Z,94223
2019-04-06T10:48:04.972Z,94217
2019-04-06T10:49:14.470Z,94216
2019-04-06T10:50:23.987Z,94217
2019-04-06T10:51:33.605Z,94220
2019-04-06T10:52:44.470Z,94222
2019-04-06T10:53:53.733Z,94216
2019-04-06T10:55:03.187Z,94210
2019-04-06T10:56:12.690Z,94211
2019-04-06T10:57:22.185Z,94216
2019-04-06T10:58:31.693Z,94206
2019-04-06T10:59:41.209Z,94209
2019-04-06T11:00:51.712Z,94202
2019-04-06T11:02:01.219Z,94205
2019-04-06T11:03:10.732Z,94202
2019-04-06T11:04:20.472Z,94209
2019-04-06T11:05:29.951Z,94201
2019-04-06T11:06:39.596Z,94199
2019-04-06T11:07:48.956Z,94200
2019-04-06T11:08:58.766Z,94197
2019-04-06T11:10:07.982Z,94189
2019-04-06T11:11:20.088Z,94192
2019-04-06T11:12:26.976Z,94186
2019-04-06T11:13:36.475Z,94183
2019-04-06T11:14:45.969Z,94184
2019-04-06T11:15:55.523Z,94185
2019-04-06T11:17:05.008Z,94179
2019-04-06T11:18:14.514Z,94177
2019-04-06T11:19:24.018Z,94173
2019-04-06T11:20:33.588Z,94170
2019-04-06T11:21:43.119Z,94174
2019-04-06T11:22:52.975Z,94166
2019-04-06T11:24:02.171Z,94162
2019-04-06T11:25:12.895Z,94164
2019-04-06T11:26:22.246Z,94171
2019-04-06T11:27:31.759Z,94161
2019-04-06T11:28:41.607Z,94160
2019-04-06T11:29:50.842Z,94159
2019-04-06T11:31:00.778Z,94159
2019-04-06T11:32:09.994Z,94159
2019-04-06T11:33:19.495Z,94170
2019-04-06T11:34:29.020Z,94169
2019-04-06T11:35:38.531Z,94167
2019-04-06T11:36:48.040Z,94161
2019-04-06T11:37:57.669Z,94164
2019-04-06T11:39:07.285Z,94167
2019-04-06T11:40:16.580Z,94163
2019-04-06T11:41:26.086Z,94158
2019-04-06T11:42:35.787Z,94160
2019-04-06T11:43:45.098Z,94168
2019-04-06T11:44:54.608Z,94160
2019-04-06T11:46:04.123Z,94163
2019-04-06T11:47:13.757Z,94155
2019-04-06T11:48:23.148Z,94163
2019-04-06T11:49:32.703Z,94170
2019-04-06T11:50:42.449Z,94161
2019-04-06T11:51:51.710Z,94159
2019-04-06T11:53:01.198Z,94161
2019-04-06T11:54:10.711Z,94161
2019-04-06T11:55:20.266Z,94162
2019-04-06T11:56:29.867Z,94164
2019-04-06T11:57:39.486Z,94160
2019-04-06T11:58:48.922Z,94161
2019-04-06T11:59:58.566Z,94157
2019-04-06T12:01:08.134Z,94154
2019-04-06T12:02:17.538Z,94154
2019-04-06T12:03:27.046Z,94149
2019-04-06T12:04:36.551Z,94154
2019-04-06T12:05:46.752Z,94157
2019-04-06T12:06:56.019Z,94154
2019-04-06T12:08:05.549Z,94151
2019-04-06T12:09:15.070Z,94158
2019-04-06T12:10:24.625Z,94158
2019-04-06T12:11:34.192Z,94153
2019-04-06T12:12:43.663Z,94157
2019-04-06T12:13:53.163Z,94155
2019-04-06T12:15:02.747Z,94151
2019-04-06T12:16:12.360Z,94153
2019-04-06T12:17:21.704Z,94151
2019-04-06T12:18:31.534Z,94157
2019-04-06T12:19:48.151Z,94155
2019-04-06T12:20:57.668Z,94147
2019-04-06T12:22:07.355Z,94148
2019-04-06T12:23:16.774Z,94147
2019-04-06T12:24:26.295Z,94144
2019-04-06T12:25:35.963Z,94140
2019-04-06T12:26:45.480Z,94143
2019-04-06T12:27:55.055Z,94140
2019-04-06T12:29:04.619Z,94140
2019-04-06T12:30:14.192Z,94142
2019-04-06T12:31:23.663Z,94143
2019-04-06T12:32:33.454Z,94149
2019-04-06T12:33:43.073Z,94153
2019-04-06T12:34:52.290Z,94156
2019-04-06T12:36:01.794Z,94154
2019-04-06T12:37:11.342Z,94148
2019-04-06T12:38:20.839Z,94147
2019-04-06T12:39:30.463Z,94143
2019-04-06T12:40:40.094Z,94143
2019-04-06T12:41:49.485Z,94151
2019-04-06T12:42:59.001Z,94151
2019-04-06T12:44:08.690Z,94150
2019-04-06T12:45:18.239Z,94149
2019-04-06T12:46:28.066Z,94149
2019-04-06T12:47:37.313Z,94147
2019-04-06T12:48:46.836Z,94145
2019-04-06T12:49:56.364Z,94146
2019-04-06T12:51:05.954Z,94146
2019-04-06T12:52:15.370Z,94141
2019-04-06T12:53:24.925Z,94141
2019-04-06T12:54:34.478Z,94141
2019-04-06T12:55:44.017Z,94147
2019-04-06T12:56:53.524Z,94147
2019-04-06T12:58:03.085Z,94151
2019-04-06T12:59:12.954Z,94149
2019-04-06T13:00:22.536Z,94146
2019-04-06T13:01:31.702Z,94149
2019-04-06T13:02:41.214Z,94153
2019-04-06T13:03:50.813Z,94149
2019-04-06T13:05:00.621Z,94150
2019-04-06T13:06:10.120Z,94149
2019-04-06T13:07:19.361Z,94142
2019-04-06T13:08:28.855Z,94142
2019-04-06T13:09:38.717Z,94139
2019-04-06T13:10:47.879Z,94133
2019-04-06T13:11:57.570Z,94142
2019-04-06T13:13:06.905Z,94137
2019-04-06T13:14:16.424Z,94142
2019-04-06T13:15:25.965Z,94142
2019-04-06T13:16:35.436Z,94141
2019-04-06T13:17:44.941Z,94138
2019-04-06T13:18:54.458Z,94145
2019-04-06T13:20:03.973Z,94140
2019-04-06T13:21:13.479Z,94147
2019-04-06T13:22:22.978Z,94142
2019-04-06T13:23:32.826Z,94145
2019-04-06T13:24:42.026Z,94144
2019-04-06T13:25:51.541Z,94138
2019-04-06T13:27:01.048Z,94141
2019-04-06T13:28:10.796Z,94144
2019-04-06T13:29:20.237Z,94138
2019-04-06T13:30:29.583Z,94138
2019-04-06T13:31:39.362Z,94134
2019-04-06T13:32:48.608Z,94136
2019-04-06T13:33:59.140Z,94129
2019-04-06T13:35:08.628Z,94127
2019-04-06T13:36:18.230Z,94121
2019-04-06T13:37:27.658Z,94134
2019-04-06T13:38:37.590Z,94125
2019-04-06T13:39:46.804Z,94124
2019-04-06T13:40:56.302Z,94123
2019-04-06T13:42:05.829Z,94125
2019-04-06T13:43:15.417Z,94117
2019-04-06T13:44:24.918Z,94122
2019-04-06T13:45:34.507Z,94122
2019-04-06T13:46:44.289Z,94130
2019-04-06T13:47:53.561Z,94128
2019-04-06T13:49:03.361Z,94130
2019-04-06T13:50:12.667Z,94127
2019-04-06T13:51:22.312Z,94123
2019-04-06T13:52:31.892Z,94121
2019-04-06T13:53:41.390Z,94121
2019-04-06T13:54:51.014Z,94115
2019-04-06T13:56:00.721Z,94115
2019-04-06T13:57:10.124Z,94116
2019-04-06T13:58:19.797Z,94118
2019-04-06T13:59:29.128Z,94110
2019-04-06T14:00:38.686Z,94110
2019-04-06T14:01:48.271Z,94116
2019-04-06T14:02:57.984Z,94109
2019-04-06T14:04:07.236Z,94114
2019-04-06T14:05:16.754Z,94107
2019-04-06T14:06:26.283Z,94105
2019-04-06T14:07:35.822Z,94115
2019-04-06T14:08:45.349Z,94111
2019-04-06T14:09:54.892Z,94109
2019-04-06T14:11:04.405Z,94114
2019-04-06T14:12:14.234Z,94112
2019-04-06T14:13:23.550Z,94114
2019-04-06T14:14:32.173Z,94112
2019-04-06T14:15:41.758Z,94115
2019-04-06T14:16:51.294Z,94118
2019-04-06T14:18:00.809Z,94119
2019-04-06T14:19:10.493Z,94124
2019-04-06T14:20:19.846Z,94121
2019-04-06T14:21:29.453Z,94121
2019-04-06T14:22:38.997Z,94123
2019-04-06T14:23:48.670Z,94127
2019-04-06T14:24:58.185Z,94126
2019-04-06T14:26:07.715Z,94107
2019-04-06T14:27:17.671Z,94127
2019-04-06T14:28:26.835Z,94130
2019-04-06T14:29:36.363Z,94122
2019-04-06T14:30:45.885Z,94121
2019-04-06T14:31:55.457Z,94124
2019-04-06T14:33:05.201Z,94131
2019-04-06T14:34:14.932Z,94125
2019-04-06T14:35:24.193Z,94129
2019-04-06T14:36:33.760Z,94132
2019-04-06T14:37:43.587Z,94134
2019-04-06T14:38:53.122Z,94130
2019-04-06T14:40:02.366Z,94130
2019-04-06T14:41:11.897Z,94132
2019-04-06T14:42:21.727Z,94134
2019-04-06T14:43:30.949Z,94131
2019-04-06T14:44:40.774Z,94128
2019-04-06T14:45:49.995Z,94129
2019-04-06T14:46:59.560Z,94120
2019-04-06T14:48:09.701Z,94126
2019-04-06T14:49:29.323Z,94110
2019-04-06T14:50:29.440Z,94119
2019-04-06T14:51:38.739Z,94109
2019-04-06T14:52:48.500Z,94109
2019-04-06T14:53:57.854Z,94108
2019-04-06T14:55:07.827Z,94107
2019-04-06T14:56:16.996Z,94109
2019-04-06T14:57:26.522Z,94109